Lewisville's Hourly Summary for Friday, July 6, 2018
Hour Temp
(f)
RH
(%)
Solar Rad.
(MJ/m2)
Rainfall
(in)
Wind
(mph)
7/6/2018 12:00 AM 83 63 0 0 0.41
7/6/2018 1:00 AM 81 67 0 0 0.01
7/6/2018 2:00 AM 81 72 0 0 1.21
7/6/2018 3:00 AM 80 77 0 0 1.29
7/6/2018 4:00 AM 79 81 0 0 1.67
7/6/2018 5:00 AM 78 82 0 0 2.45
7/6/2018 6:00 AM 77 81 0.06 0 4.19
7/6/2018 7:00 AM 79 76 0.52 0 3.42
7/6/2018 8:00 AM 82 68 1.04 0 2.59
7/6/2018 9:00 AM 85 56 1.49 0 3.68
7/6/2018 10:00 AM 88 50 1.77 0 4
7/6/2018 11:00 AM 90 45 2.18 0 5.01
7/6/2018 12:00 PM 91 41 1.67 0 5.24
7/6/2018 1:00 PM 94 39 2.92 0 5.12
7/6/2018 2:00 PM 95 38 3.01 0 5.13
7/6/2018 3:00 PM 91 36 1.66 0.06 6.32
7/6/2018 4:00 PM 79 79 0.47 0.02 2.38
7/6/2018 5:00 PM 82 61 1.09 0 3.66
7/6/2018 6:00 PM 86 50 1.15 0 5.59
7/6/2018 7:00 PM 84 52 0.19 0 3.86
7/6/2018 8:00 PM 83 61 0.02 0 4.1
7/6/2018 9:00 PM 81 70 0 0 4.57
7/6/2018 10:00 PM 79 70 0 0 0.88
7/6/2018 11:00 PM 79 72 0 0 2.14
Data Summary 83 61 19.24 0.08 3.29